X  Blizu METAR Podaci o vazduhoplovstvu     EDVE Braunschweig-Wolfsburg Airport
Temperatura
14°C Temperatura
10°C Tačka Rose
77% Vlaga



Vetar
5 KM/S
3 MPS
1 M/S
3 Čvorovi



80°
I
Trenutna situacija

Vedro Vedro
Vazdušni pritisak 1023.92 (hPa) - 30.24 (inHg)
Vidljivost 6.2 (Milje) - 10 (km)
Aerodrom
Aerodromski kod. EDVE

Lokacija: Braunschweig-Wolfsburg Airport
Udaljenost: 35 (km)

Metar:
EDVE 110150Z AUTO 08003KT 9999 NCD 14/10 Q1024

Vreme: 11-08-2022 03:50 CEST